createdAt,value
2023-01-21T00:00:44.781Z,23.69
2023-01-21T00:03:08.936Z,23.69
2023-01-21T00:05:35.312Z,23.69
2023-01-21T00:08:02.740Z,23.69
2023-01-21T00:10:28.039Z,23.68
2023-01-21T00:12:54.390Z,23.66
2023-01-21T00:15:20.792Z,23.65
2023-01-21T00:20:29.388Z,23.64
2023-01-21T00:22:55.780Z,23.67
2023-01-21T00:25:22.121Z,23.65
2023-01-21T00:27:48.511Z,23.62
2023-01-21T00:30:15.045Z,23.62
2023-01-21T00:32:41.265Z,23.60
2023-01-21T00:35:07.678Z,23.62
2023-01-21T00:37:34.072Z,23.62
2023-01-21T00:40:00.445Z,23.61
2023-01-21T00:42:26.829Z,23.61
2023-01-21T00:44:53.175Z,23.58
2023-01-21T00:47:19.623Z,23.57
2023-01-21T00:49:45.966Z,23.59
2023-01-21T00:52:12.361Z,23.58
2023-01-21T00:54:38.703Z,23.57
2023-01-21T00:57:05.099Z,23.58
2023-01-21T00:59:31.437Z,23.61
2023-01-21T01:01:57.832Z,23.59
2023-01-21T01:04:24.188Z,23.58
2023-01-21T01:06:50.600Z,23.55
2023-01-21T01:09:16.948Z,23.56
2023-01-21T01:11:43.341Z,23.56
2023-01-21T01:14:09.671Z,23.57
2023-01-21T01:16:36.078Z,23.56
2023-01-21T01:19:02.421Z,23.55
2023-01-21T01:21:28.804Z,23.55
2023-01-21T01:23:55.156Z,23.54
2023-01-21T01:26:21.550Z,23.53
2023-01-21T01:28:47.895Z,23.54
2023-01-21T01:31:14.369Z,23.55
2023-01-21T01:33:40.614Z,23.53
2023-01-21T01:36:07.002Z,23.53
2023-01-21T01:38:33.355Z,23.52
2023-01-21T01:40:59.752Z,23.52
2023-01-21T01:43:26.088Z,23.51
2023-01-21T01:45:52.469Z,23.50
2023-01-21T01:48:18.817Z,23.52
2023-01-21T01:50:45.236Z,23.53
2023-01-21T01:53:11.565Z,23.49
2023-01-21T01:55:37.944Z,23.47
2023-01-21T01:58:04.329Z,23.46
2023-01-21T02:00:30.707Z,23.46
2023-01-21T02:02:57.089Z,23.47
2023-01-21T02:05:23.444Z,23.50
2023-01-21T02:07:49.793Z,23.47
2023-01-21T02:10:16.519Z,23.50
2023-01-21T02:12:42.535Z,23.44
2023-01-21T02:15:10.129Z,23.46
2023-01-21T02:17:35.248Z,23.43
2023-01-21T02:20:01.634Z,23.43
2023-01-21T02:22:27.981Z,23.47
2023-01-21T02:24:54.373Z,23.45
2023-01-21T02:27:29.987Z,23.43
2023-01-21T02:29:47.133Z,23.45
2023-01-21T02:32:13.477Z,23.43
2023-01-21T02:34:39.870Z,23.44
2023-01-21T02:37:07.233Z,23.42
2023-01-21T02:39:32.623Z,23.44
2023-01-21T02:41:58.969Z,23.44
2023-01-21T02:44:25.440Z,23.44
2023-01-21T02:46:51.870Z,23.41
2023-01-21T02:49:18.203Z,23.40
2023-01-21T02:51:44.545Z,23.42
2023-01-21T02:54:10.940Z,23.42
2023-01-21T02:56:37.291Z,23.41
2023-01-21T02:59:03.673Z,23.43
2023-01-21T03:01:30.017Z,23.39
2023-01-21T03:03:56.404Z,23.42
2023-01-21T03:06:22.745Z,23.49
2023-01-21T03:08:49.141Z,23.47
2023-01-21T03:11:15.491Z,23.49
2023-01-21T03:13:41.863Z,23.49
2023-01-21T03:16:08.232Z,23.46
2023-01-21T03:18:34.613Z,23.45
2023-01-21T03:21:00.942Z,23.44
2023-01-21T03:23:27.328Z,23.41
2023-01-21T03:25:53.676Z,23.40
2023-01-21T03:28:20.064Z,23.41
2023-01-21T03:30:46.421Z,23.40
2023-01-21T03:33:12.810Z,23.38
2023-01-21T03:35:39.151Z,23.40
2023-01-21T03:38:05.544Z,23.38
2023-01-21T03:40:31.894Z,23.37
2023-01-21T03:42:58.290Z,23.35
2023-01-21T03:45:24.702Z,23.35
2023-01-21T03:47:51.064Z,23.34
2023-01-21T03:50:17.648Z,23.34
2023-01-21T03:52:43.805Z,23.36
2023-01-21T03:55:10.151Z,23.35
2023-01-21T03:57:36.535Z,23.34
2023-01-21T04:00:02.888Z,23.34
2023-01-21T04:02:29.326Z,23.31
2023-01-21T04:04:55.659Z,23.30
2023-01-21T04:07:22.044Z,23.30
2023-01-21T04:09:48.406Z,23.30
2023-01-21T04:12:14.794Z,23.30
2023-01-21T04:14:41.128Z,23.30
2023-01-21T04:17:07.523Z,23.29
2023-01-21T04:19:33.861Z,23.30
2023-01-21T04:22:00.292Z,23.29
2023-01-21T04:24:26.642Z,23.30
2023-01-21T04:26:53.031Z,23.29
2023-01-21T04:29:19.380Z,23.29
2023-01-21T04:31:45.851Z,23.28
2023-01-21T04:34:12.109Z,23.30
2023-01-21T04:36:39.814Z,23.27
2023-01-21T04:39:04.879Z,23.28
2023-01-21T04:41:31.255Z,23.27
2023-01-21T04:43:57.640Z,23.26
2023-01-21T04:46:23.987Z,23.27
2023-01-21T04:48:50.416Z,23.29
2023-01-21T04:51:16.788Z,23.27
2023-01-21T04:53:43.138Z,23.25
2023-01-21T04:56:09.501Z,23.26
2023-01-21T04:58:35.878Z,23.24
2023-01-21T05:01:02.270Z,23.25
2023-01-21T05:03:28.631Z,23.24
2023-01-21T05:05:54.942Z,23.23
2023-01-21T05:08:21.376Z,23.28
2023-01-21T05:10:47.701Z,23.24
2023-01-21T05:13:14.100Z,23.22
2023-01-21T05:15:40.436Z,23.22
2023-01-21T05:18:06.817Z,23.22
2023-01-21T05:20:33.165Z,23.22
2023-01-21T05:22:59.549Z,23.18
2023-01-21T05:25:25.893Z,23.20
2023-01-21T05:27:52.314Z,23.18
2023-01-21T05:30:18.816Z,23.22
2023-01-21T05:32:45.043Z,23.18
2023-01-21T05:35:11.439Z,23.15
2023-01-21T05:37:37.829Z,23.17
2023-01-21T05:40:04.257Z,23.20
2023-01-21T05:42:30.645Z,23.16
2023-01-21T05:44:56.987Z,23.15
2023-01-21T05:47:23.370Z,23.16
2023-01-21T05:49:49.746Z,23.17
2023-01-21T05:52:16.167Z,23.18
2023-01-21T05:54:59.930Z,23.16
2023-01-21T05:57:08.939Z,23.16
2023-01-21T05:59:35.278Z,23.18
2023-01-21T06:02:01.710Z,23.14
2023-01-21T06:04:28.013Z,23.15
2023-01-21T06:06:54.393Z,23.13
2023-01-21T06:09:20.735Z,23.13
2023-01-21T06:11:47.118Z,23.11
2023-01-21T06:14:13.469Z,23.10
2023-01-21T06:16:39.852Z,23.13
2023-01-21T06:19:06.201Z,23.11
2023-01-21T06:21:32.584Z,23.10
2023-01-21T06:23:58.924Z,23.12
2023-01-21T06:26:27.116Z,23.14
2023-01-21T06:28:51.683Z,23.11
2023-01-21T06:31:18.135Z,23.11
2023-01-21T06:33:44.433Z,23.10
2023-01-21T06:36:10.811Z,23.07
2023-01-21T06:38:37.154Z,23.08
2023-01-21T06:41:03.555Z,23.02
2023-01-21T06:43:29.916Z,23.03
2023-01-21T06:45:56.323Z,23.08
2023-01-21T06:48:22.647Z,23.03
2023-01-21T06:50:49.074Z,23.06
2023-01-21T06:53:15.396Z,23.03
2023-01-21T06:55:41.775Z,23.02
2023-01-21T06:58:08.125Z,22.99
2023-01-21T07:00:34.515Z,22.99
2023-01-21T07:03:00.924Z,23.01
2023-01-21T07:05:27.277Z,23.00
2023-01-21T07:07:53.620Z,23.01
2023-01-21T07:10:20.000Z,23.02
2023-01-21T07:12:46.345Z,23.00
2023-01-21T07:15:12.730Z,23.02
2023-01-21T07:17:39.065Z,23.03
2023-01-21T07:20:05.453Z,23.02
2023-01-21T07:22:31.801Z,23.00
2023-01-21T07:24:58.186Z,23.01
2023-01-21T07:27:24.522Z,23.02
2023-01-21T07:29:50.964Z,23.01
2023-01-21T07:32:17.313Z,23.05
2023-01-21T07:34:43.702Z,23.01
2023-01-21T07:37:10.032Z,23.01
2023-01-21T07:39:36.426Z,23.03
2023-01-21T07:42:02.772Z,23.03
2023-01-21T07:44:29.156Z,23.05
2023-01-21T07:46:55.498Z,23.02
2023-01-21T07:49:21.924Z,23.06
2023-01-21T07:51:48.272Z,23.07
2023-01-21T07:54:14.692Z,23.07
2023-01-21T07:56:41.013Z,23.06
2023-01-21T07:59:07.400Z,23.06
2023-01-21T08:01:33.760Z,23.08
2023-01-21T08:04:00.145Z,23.03
2023-01-21T08:06:26.509Z,23.06
2023-01-21T08:08:52.891Z,23.06
2023-01-21T08:11:19.264Z,23.06
2023-01-21T08:13:45.657Z,23.10
2023-01-21T08:16:12.058Z,23.09
2023-01-21T08:18:38.399Z,23.13
2023-01-21T08:21:04.770Z,23.11
2023-01-21T08:23:31.148Z,23.11
2023-01-21T08:25:57.496Z,23.09
2023-01-21T08:28:23.875Z,23.10
2023-01-21T08:30:50.238Z,23.10
2023-01-21T08:33:17.865Z,23.11
2023-01-21T08:35:42.981Z,23.10
2023-01-21T08:38:10.799Z,23.12
2023-01-21T08:40:35.703Z,23.11
2023-01-21T08:43:02.090Z,23.12
2023-01-21T08:45:29.671Z,23.14
2023-01-21T08:47:54.824Z,23.11
2023-01-21T08:50:21.162Z,23.10
2023-01-21T08:52:47.553Z,23.11
2023-01-21T08:55:13.925Z,23.11
2023-01-21T08:57:40.280Z,23.12
2023-01-21T09:00:06.641Z,23.09
2023-01-21T09:02:33.020Z,23.09
2023-01-21T09:04:59.355Z,23.10
2023-01-21T09:07:25.783Z,23.08
2023-01-21T09:09:52.120Z,23.11
2023-01-21T09:12:18.508Z,23.14
2023-01-21T09:14:44.843Z,23.14
2023-01-21T09:17:11.241Z,23.16
2023-01-21T09:19:38.822Z,23.17
2023-01-21T09:22:04.202Z,23.16
2023-01-21T09:24:32.721Z,23.16
2023-01-21T09:26:59.096Z,23.18
2023-01-21T09:29:25.442Z,23.20
2023-01-21T09:31:51.985Z,23.17
2023-01-21T09:34:18.204Z,23.20
2023-01-21T09:36:44.577Z,23.17
2023-01-21T09:39:10.915Z,23.20
2023-01-21T09:41:37.352Z,23.18
2023-01-21T09:44:03.680Z,23.22
2023-01-21T09:46:30.052Z,23.24
2023-01-21T09:48:56.418Z,23.27
2023-01-21T09:51:22.803Z,23.29
2023-01-21T09:53:49.159Z,23.30
2023-01-21T09:56:15.531Z,23.29
2023-01-21T09:58:41.875Z,23.30
2023-01-21T10:01:08.343Z,23.30
2023-01-21T10:03:34.619Z,23.32
2023-01-21T10:06:01.023Z,23.35
2023-01-21T10:08:27.339Z,23.32
2023-01-21T10:10:55.141Z,23.34
2023-01-21T10:13:20.062Z,23.31
2023-01-21T10:15:46.454Z,23.34
2023-01-21T10:18:12.808Z,23.35
2023-01-21T10:20:39.196Z,23.34
2023-01-21T10:23:06.732Z,23.34
2023-01-21T10:25:31.925Z,23.35
2023-01-21T10:27:58.254Z,23.36
2023-01-21T10:30:24.654Z,23.38
2023-01-21T10:32:51.019Z,23.36
2023-01-21T10:35:17.750Z,23.37
2023-01-21T10:37:43.755Z,23.39
2023-01-21T10:40:10.138Z,23.39
2023-01-21T10:42:37.751Z,23.40
2023-01-21T10:45:02.901Z,23.42
2023-01-21T10:50:14.556Z,23.42
2023-01-21T10:52:40.908Z,23.47
2023-01-21T10:55:07.286Z,23.46
2023-01-21T10:57:33.630Z,23.53
2023-01-21T11:00:00.030Z,23.54
2023-01-21T11:02:26.397Z,23.59
2023-01-21T11:04:52.743Z,23.69
2023-01-21T11:07:19.099Z,23.73
2023-01-21T11:09:45.471Z,23.83
2023-01-21T11:12:11.807Z,23.85
2023-01-21T11:14:38.203Z,23.86
2023-01-21T11:17:04.535Z,23.99
2023-01-21T11:19:30.952Z,24.10
2023-01-21T11:21:57.298Z,24.18
2023-01-21T11:24:23.709Z,24.20
2023-01-21T11:26:50.052Z,24.18
2023-01-21T11:29:16.452Z,24.19
2023-01-21T11:31:42.963Z,24.24
2023-01-21T11:34:09.197Z,24.26
2023-01-21T11:36:35.574Z,24.23
2023-01-21T11:39:01.973Z,24.27
2023-01-21T11:41:28.298Z,24.35
2023-01-21T11:43:54.708Z,24.42
2023-01-21T11:46:21.103Z,24.45
2023-01-21T11:48:47.426Z,24.46
2023-01-21T11:51:13.835Z,24.47
2023-01-21T11:53:40.148Z,24.58
2023-01-21T11:56:06.488Z,24.58
2023-01-21T11:58:32.888Z,24.56
2023-01-21T12:00:59.222Z,24.58
2023-01-21T12:03:25.636Z,24.57
2023-01-21T12:05:51.963Z,24.53
2023-01-21T12:08:18.386Z,24.47
2023-01-21T12:10:44.714Z,24.43
2023-01-21T12:13:11.092Z,24.43
2023-01-21T12:15:37.469Z,24.43
2023-01-21T12:18:03.827Z,24.40
2023-01-21T12:20:30.177Z,24.39
2023-01-21T12:22:56.560Z,24.34
2023-01-21T12:25:22.904Z,24.40
2023-01-21T12:27:49.287Z,24.44
2023-01-21T12:30:15.900Z,24.48
2023-01-21T12:32:42.078Z,24.47
2023-01-21T12:35:08.394Z,24.45
2023-01-21T12:37:34.790Z,24.50
2023-01-21T12:40:01.162Z,24.44
2023-01-21T12:42:27.512Z,24.46
2023-01-21T12:44:53.863Z,24.46
2023-01-21T12:47:20.242Z,24.43
2023-01-21T12:49:46.595Z,24.46
2023-01-21T12:52:12.996Z,24.41
2023-01-21T12:54:39.335Z,24.36
2023-01-21T12:57:05.723Z,24.32
2023-01-21T12:59:32.063Z,24.28
2023-01-21T13:01:58.527Z,24.27
2023-01-21T13:04:24.819Z,24.23
2023-01-21T13:06:54.103Z,24.25
2023-01-21T13:09:17.541Z,24.30
2023-01-21T13:11:43.939Z,24.36
2023-01-21T13:14:10.297Z,24.32
2023-01-21T13:16:36.766Z,24.36
2023-01-21T13:19:03.042Z,24.33
2023-01-21T13:21:29.416Z,24.28
2023-01-21T13:23:55.787Z,24.26
2023-01-21T13:26:22.150Z,24.25
2023-01-21T13:28:48.495Z,24.25
2023-01-21T13:31:15.005Z,24.24
2023-01-21T13:33:41.258Z,24.26
2023-01-21T13:36:07.651Z,24.30
2023-01-21T13:38:34.003Z,24.32
2023-01-21T13:41:00.398Z,24.29
2023-01-21T13:43:26.731Z,24.34
2023-01-21T13:45:53.183Z,24.30
2023-01-21T13:48:19.483Z,24.32
2023-01-21T13:50:45.952Z,24.34
2023-01-21T13:53:12.492Z,24.35
2023-01-21T13:55:38.836Z,24.30
2023-01-21T13:58:05.187Z,24.24
2023-01-21T14:00:31.694Z,24.20
2023-01-21T14:02:58.039Z,24.16
2023-01-21T14:05:24.450Z,24.13
2023-01-21T14:07:50.796Z,24.11
2023-01-21T14:10:17.424Z,24.10
2023-01-21T14:12:43.524Z,24.12
2023-01-21T14:15:09.921Z,24.09
2023-01-21T14:17:36.265Z,24.05
2023-01-21T14:20:02.645Z,24.08
2023-01-21T14:22:28.996Z,24.06
2023-01-21T14:24:55.375Z,24.08
2023-01-21T14:27:21.821Z,24.06
2023-01-21T14:29:48.295Z,24.09
2023-01-21T14:32:14.529Z,24.02
2023-01-21T14:34:40.933Z,23.99
2023-01-21T14:37:07.264Z,23.98
2023-01-21T14:39:33.712Z,23.92
2023-01-21T14:42:00.064Z,23.90
2023-01-21T14:44:26.411Z,23.89
2023-01-21T14:46:52.757Z,23.91
2023-01-21T14:49:19.138Z,23.88
2023-01-21T14:51:45.486Z,23.84
2023-01-21T14:54:11.914Z,23.88
2023-01-21T14:56:38.282Z,23.84
2023-01-21T14:59:04.668Z,23.82
2023-01-21T15:01:31.119Z,23.82
2023-01-21T15:03:57.425Z,23.84
2023-01-21T15:06:23.868Z,23.83
2023-01-21T15:08:50.207Z,23.84
2023-01-21T15:11:16.614Z,23.83
2023-01-21T15:13:43.010Z,23.85
2023-01-21T15:16:09.414Z,23.87
2023-01-21T15:18:35.743Z,23.86
2023-01-21T15:21:02.130Z,23.85
2023-01-21T15:23:28.474Z,23.84
2023-01-21T15:25:55.906Z,23.82
2023-01-21T15:28:22.243Z,23.83
2023-01-21T15:30:58.365Z,23.83
2023-01-21T15:33:14.984Z,23.82
2023-01-21T15:35:41.375Z,23.81
2023-01-21T15:38:07.705Z,23.80
2023-01-21T15:40:34.088Z,23.80
2023-01-21T15:43:00.435Z,23.80
2023-01-21T15:45:26.827Z,23.82
2023-01-21T15:47:53.162Z,23.81
2023-01-21T15:50:19.559Z,23.82
2023-01-21T15:52:45.902Z,23.83
2023-01-21T15:55:12.285Z,23.81
2023-01-21T15:57:38.740Z,23.79
2023-01-21T16:00:05.137Z,23.82
2023-01-21T16:02:31.529Z,23.83
2023-01-21T16:04:58.829Z,23.83
2023-01-21T16:07:24.220Z,23.83
2023-01-21T16:09:50.604Z,23.83
2023-01-21T16:12:16.989Z,23.85
2023-01-21T16:14:43.370Z,23.81
2023-01-21T16:19:55.035Z,23.74
2023-01-21T16:22:21.364Z,23.73
2023-01-21T16:24:47.749Z,23.75
2023-01-21T16:27:14.119Z,23.77
2023-01-21T16:29:40.503Z,23.71
2023-01-21T16:32:06.899Z,23.73
2023-01-21T16:34:35.316Z,23.73
2023-01-21T16:36:59.590Z,23.71
2023-01-21T16:39:25.996Z,23.71
2023-01-21T16:41:52.352Z,23.72
2023-01-21T16:44:18.736Z,23.70
2023-01-21T16:46:45.086Z,23.69
2023-01-21T16:49:11.472Z,23.71
2023-01-21T16:51:37.886Z,23.69
2023-01-21T16:54:04.269Z,23.70
2023-01-21T16:56:30.613Z,23.69
2023-01-21T16:58:56.994Z,23.70
2023-01-21T17:01:23.383Z,23.69
2023-01-21T17:03:49.766Z,23.69
2023-01-21T17:06:16.087Z,23.72
2023-01-21T17:08:42.489Z,23.71
2023-01-21T17:11:08.838Z,23.69
2023-01-21T17:13:35.222Z,23.70
2023-01-21T17:16:01.645Z,23.70
2023-01-21T17:18:27.956Z,23.70
2023-01-21T17:20:54.319Z,23.69
2023-01-21T17:23:20.713Z,23.70
2023-01-21T17:25:49.453Z,23.69
2023-01-21T17:28:15.834Z,23.67
2023-01-21T17:30:42.287Z,23.67
2023-01-21T17:33:08.567Z,23.66
2023-01-21T17:35:34.912Z,23.62
2023-01-21T17:38:01.295Z,23.64
2023-01-21T17:40:27.670Z,23.61
2023-01-21T17:42:54.028Z,23.64
2023-01-21T17:45:20.372Z,23.64
2023-01-21T17:48:07.261Z,23.60
2023-01-21T17:50:13.138Z,23.56
2023-01-21T17:52:39.532Z,23.58
2023-01-21T17:55:05.899Z,23.55
2023-01-21T17:57:32.308Z,23.58
2023-01-21T17:59:58.653Z,23.54
2023-01-21T18:02:25.104Z,23.52
2023-01-21T18:04:51.446Z,23.56
2023-01-21T18:07:17.835Z,23.56
2023-01-21T18:09:44.349Z,23.54
2023-01-21T18:12:10.703Z,23.55
2023-01-21T18:14:37.074Z,23.54
2023-01-21T18:17:03.454Z,23.54
2023-01-21T18:19:29.805Z,23.56
2023-01-21T18:21:56.188Z,23.54
2023-01-21T18:24:22.666Z,23.55
2023-01-21T18:26:48.988Z,23.54
2023-01-21T18:29:15.327Z,23.52
2023-01-21T18:31:41.837Z,23.50
2023-01-21T18:34:08.063Z,23.53
2023-01-21T18:36:34.461Z,23.52
2023-01-21T18:39:00.811Z,23.51
2023-01-21T18:41:27.194Z,23.50
2023-01-21T18:43:53.536Z,23.50
2023-01-21T18:46:20.018Z,23.50
2023-01-21T18:48:46.273Z,23.49
2023-01-21T18:51:12.730Z,23.50
2023-01-21T18:53:39.002Z,23.49
2023-01-21T18:56:05.422Z,23.49
2023-01-21T18:58:31.765Z,23.45
2023-01-21T19:00:58.161Z,23.47
2023-01-21T19:03:24.501Z,23.46
2023-01-21T19:05:50.900Z,23.46
2023-01-21T19:08:17.266Z,23.46
2023-01-21T19:10:43.660Z,23.46
2023-01-21T19:13:10.012Z,23.45
2023-01-21T19:15:36.389Z,23.43
2023-01-21T19:18:02.736Z,23.42
2023-01-21T19:20:29.141Z,23.43
2023-01-21T19:22:55.485Z,23.43
2023-01-21T19:25:21.894Z,23.42
2023-01-21T19:27:48.237Z,23.42
2023-01-21T19:30:14.803Z,23.42
2023-01-21T19:32:41.025Z,23.42
2023-01-21T19:35:07.397Z,23.41
2023-01-21T19:37:33.743Z,23.41
2023-01-21T19:40:00.137Z,23.41
2023-01-21T19:42:26.489Z,23.41
2023-01-21T19:44:52.903Z,23.41
2023-01-21T19:47:19.318Z,23.40
2023-01-21T19:49:45.708Z,23.40
2023-01-21T19:52:12.072Z,23.39
2023-01-21T19:54:38.461Z,23.40
2023-01-21T19:57:04.800Z,23.37
2023-01-21T19:59:31.184Z,23.38
2023-01-21T20:01:57.543Z,23.38
2023-01-21T20:04:23.933Z,23.37
2023-01-21T20:06:50.263Z,23.37
2023-01-21T20:09:16.645Z,23.37
2023-01-21T20:11:43.011Z,23.37
2023-01-21T20:14:09.396Z,23.37
2023-01-21T20:16:35.755Z,23.36
2023-01-21T20:19:02.166Z,23.35
2023-01-21T20:21:28.462Z,23.37
2023-01-21T20:23:54.882Z,23.35
2023-01-21T20:26:21.225Z,23.32
2023-01-21T20:28:47.727Z,23.34
2023-01-21T20:31:14.122Z,23.31
2023-01-21T20:33:41.927Z,23.32
2023-01-21T20:36:06.798Z,23.32
2023-01-21T20:38:33.153Z,23.31
2023-01-21T20:40:59.530Z,23.31
2023-01-21T20:43:25.918Z,23.34
2023-01-21T20:45:52.299Z,23.30
2023-01-21T20:48:18.655Z,23.30
2023-01-21T20:50:45.132Z,23.29
2023-01-21T20:53:11.420Z,23.30
2023-01-21T20:55:37.789Z,23.31
2023-01-21T20:58:04.185Z,23.31
2023-01-21T21:00:31.747Z,23.30
2023-01-21T21:02:56.980Z,23.27
2023-01-21T21:05:23.937Z,23.28
2023-01-21T21:07:49.673Z,23.28
2023-01-21T21:10:16.225Z,23.31
2023-01-21T21:12:42.421Z,23.29
2023-01-21T21:15:08.788Z,23.24
2023-01-21T21:17:35.185Z,23.24
2023-01-21T21:20:01.523Z,23.24
2023-01-21T21:22:27.905Z,23.27
2023-01-21T21:24:54.241Z,23.26
2023-01-21T21:27:20.630Z,23.24
2023-01-21T21:29:46.965Z,23.23
2023-01-21T21:32:13.439Z,23.23
2023-01-21T21:34:39.711Z,23.23
2023-01-21T21:37:06.092Z,23.22
2023-01-21T21:39:32.471Z,23.22
2023-01-21T21:41:58.849Z,23.22
2023-01-21T21:44:25.202Z,23.22
2023-01-21T21:46:51.585Z,23.25
2023-01-21T21:49:17.935Z,23.25
2023-01-21T21:51:45.798Z,23.22
2023-01-21T21:54:10.708Z,23.22
2023-01-21T21:56:37.081Z,23.21
2023-01-21T21:59:03.433Z,23.21
2023-01-21T22:01:30.614Z,23.23
2023-01-21T22:03:56.153Z,23.22
2023-01-21T22:06:22.540Z,23.22
2023-01-21T22:08:48.871Z,23.22
2023-01-21T22:11:15.271Z,23.20
2023-01-21T22:13:42.606Z,23.20
2023-01-21T22:16:07.996Z,23.17
2023-01-21T22:18:34.349Z,23.17
2023-01-21T22:21:00.719Z,23.18
2023-01-21T22:23:27.057Z,23.20
2023-01-21T22:25:53.444Z,23.21
2023-01-21T22:28:19.788Z,23.17
2023-01-21T22:30:46.296Z,23.18
2023-01-21T22:33:12.525Z,23.17
2023-01-21T22:35:38.904Z,23.16
2023-01-21T22:38:05.244Z,23.17
2023-01-21T22:40:31.649Z,23.16
2023-01-21T22:42:57.984Z,23.16
2023-01-21T22:45:24.627Z,23.16
2023-01-21T22:47:50.724Z,23.16
2023-01-21T22:50:17.112Z,23.17
2023-01-21T22:52:43.456Z,23.15
2023-01-21T22:55:09.848Z,23.16
2023-01-21T22:57:36.189Z,23.14
2023-01-21T23:00:02.770Z,23.16
2023-01-21T23:02:28.905Z,23.16
2023-01-21T23:04:55.339Z,23.14
2023-01-21T23:07:21.637Z,23.15
2023-01-21T23:09:48.029Z,23.14
2023-01-21T23:12:14.365Z,23.14
2023-01-21T23:14:40.750Z,23.14
2023-01-21T23:17:07.098Z,23.16
2023-01-21T23:19:33.514Z,23.15
2023-01-21T23:21:59.859Z,23.15
2023-01-21T23:24:26.265Z,23.14
2023-01-21T23:26:52.585Z,23.14
2023-01-21T23:29:19.031Z,23.17
2023-01-21T23:31:45.479Z,23.14
2023-01-21T23:34:11.763Z,23.14
2023-01-21T23:36:38.129Z,23.13
2023-01-21T23:39:04.520Z,23.14
2023-01-21T23:41:30.858Z,23.14
2023-01-21T23:43:57.236Z,23.11
2023-01-21T23:46:23.633Z,23.13
2023-01-21T23:48:49.999Z,23.12
2023-01-21T23:51:16.475Z,23.12
2023-01-21T23:53:42.778Z,23.13
2023-01-21T23:56:09.107Z,23.11
2023-01-21T23:58:35.485Z,23.10
